sensor_id;sensor_type;location;lat;lon;timestamp;pressure;altitude;pressure_sealevel;temperature;humidity
47374;BME280;33123;50.118;10.272;2023-02-23T00:01:16;97274.84;;;11.08;65.36
47374;BME280;33123;50.118;10.272;2023-02-23T00:03:43;97281.44;;;11.05;65.53
47374;BME280;33123;50.118;10.272;2023-02-23T00:06:10;97285.13;;;11.04;65.23
47374;BME280;33123;50.118;10.272;2023-02-23T00:08:38;97274.03;;;11.02;64.94
47374;BME280;33123;50.118;10.272;2023-02-23T00:11:05;97282.22;;;11.01;64.99
47374;BME280;33123;50.118;10.272;2023-02-23T00:13:34;97281.44;;;11.00;65.17
47374;BME280;33123;50.118;10.272;2023-02-23T00:16:05;97281.44;;;11.00;65.31
47374;BME280;33123;50.118;10.272;2023-02-23T00:18:33;97281.94;;;10.97;65.27
47374;BME280;33123;50.118;10.272;2023-02-23T00:24:28;97275.59;;;10.93;65.15
47374;BME280;33123;50.118;10.272;2023-02-23T00:26:55;97276.91;;;10.91;65.12
47374;BME280;33123;50.118;10.272;2023-02-23T00:29:23;97272.66;;;10.84;65.01
47374;BME280;33123;50.118;10.272;2023-02-23T00:31:50;97277.16;;;10.84;64.86
47374;BME280;33123;50.118;10.272;2023-02-23T00:34:18;97271.59;;;10.80;64.94
47374;BME280;33123;50.118;10.272;2023-02-23T00:36:48;97274.19;;;10.75;64.96
47374;BME280;33123;50.118;10.272;2023-02-23T00:39:15;97282.06;;;10.70;64.91
47374;BME280;33123;50.118;10.272;2023-02-23T00:41:46;97269.66;;;10.61;65.19
47374;BME280;33123;50.118;10.272;2023-02-23T00:44:13;97275.44;;;10.57;65.72
47374;BME280;33123;50.118;10.272;2023-02-23T00:46:42;97279.09;;;10.51;65.55
47374;BME280;33123;50.118;10.272;2023-02-23T00:49:10;97279.31;;;10.45;65.19
47374;BME280;33123;50.118;10.272;2023-02-23T00:51:38;97280.09;;;10.40;65.54
47374;BME280;33123;50.118;10.272;2023-02-23T00:54:06;97286.91;;;10.36;65.52
47374;BME280;33123;50.118;10.272;2023-02-23T00:56:33;97280.03;;;10.30;65.65
47374;BME280;33123;50.118;10.272;2023-02-23T00:59:00;97239.47;;;9.99;65.89
47374;BME280;33123;50.118;10.272;2023-02-23T01:01:27;97282.88;;;10.23;65.65
47374;BME280;33123;50.118;10.272;2023-02-23T01:03:55;97281.50;;;10.21;65.45
47374;BME280;33123;50.118;10.272;2023-02-23T01:06:22;97280.19;;;10.18;65.50
47374;BME280;33123;50.118;10.272;2023-02-23T01:08:50;97287.00;;;10.14;65.96
47374;BME280;33123;50.118;10.272;2023-02-23T01:11:23;97290.63;;;10.08;66.22
47374;BME280;33123;50.118;10.272;2023-02-23T01:13:55;97287.22;;;10.08;66.18
47374;BME280;33123;50.118;10.272;2023-02-23T01:16:31;97320.34;;;10.03;66.03
47374;BME280;33123;50.118;10.272;2023-02-23T01:19:08;96912.81;;;7.57;66.17
47374;BME280;33123;50.118;10.272;2023-02-23T01:21:42;97195.06;;;9.38;66.96
47374;BME280;33123;50.118;10.272;2023-02-23T01:24:15;97039.09;;;8.36;66.45
47374;BME280;33123;50.118;10.272;2023-02-23T01:26:43;96990.94;;;8.04;66.04
47374;BME280;33123;50.118;10.272;2023-02-23T01:29:14;97129.47;;;8.89;66.13
47374;BME280;33123;50.118;10.272;2023-02-23T01:31:54;96800.63;;;6.66;66.40
47374;BME280;33123;50.118;10.272;2023-02-23T01:34:42;97028.06;;;8.12;66.80
47374;BME280;33123;50.118;10.272;2023-02-23T01:37:25;97267.75;;;9.76;66.63
47374;BME280;33123;50.118;10.272;2023-02-23T01:40:04;97250.28;;;9.65;67.20
47374;BME280;33123;50.118;10.272;2023-02-23T01:42:44;97060.41;;;8.40;67.15
47374;BME280;33123;50.118;10.272;2023-02-23T01:45:22;97264.50;;;9.64;67.08
47374;BME280;33123;50.118;10.272;2023-02-23T01:47:51;97280.66;;;9.78;67.36
47374;BME280;33123;50.118;10.272;2023-02-23T01:50:20;97074.38;;;8.45;67.07
47374;BME280;33123;50.118;10.272;2023-02-23T01:52:52;96787.50;;;6.61;66.99
47374;BME280;33123;50.118;10.272;2023-02-23T01:55:44;97170.34;;;9.07;66.62
47374;BME280;33123;50.118;10.272;2023-02-23T01:58:28;96884.59;;;7.20;67.00
47374;BME280;33123;50.118;10.272;2023-02-23T02:00:59;96764.69;;;6.40;67.02
47374;BME280;33123;50.118;10.272;2023-02-23T02:03:34;97110.16;;;8.52;67.26
47374;BME280;33123;50.118;10.272;2023-02-23T02:06:16;96747.81;;;6.30;66.98
47374;BME280;33123;50.118;10.272;2023-02-23T02:08:54;96824.75;;;6.68;66.72
47374;BME280;33123;50.118;10.272;2023-02-23T02:11:53;96999.94;;;7.64;67.18
47374;BME280;33123;50.118;10.272;2023-02-23T02:14:47;97214.19;;;9.02;66.89
47374;BME280;33123;50.118;10.272;2023-02-23T02:17:35;96984.09;;;7.76;67.38
47374;BME280;33123;50.118;10.272;2023-02-23T02:26:41;97216.19;;;9.16;67.42
47374;BME280;33123;50.118;10.272;2023-02-23T02:29:36;97207.25;;;9.17;67.24
47374;BME280;33123;50.118;10.272;2023-02-23T02:36:06;97186.34;;;9.01;67.31
47374;BME280;33123;50.118;10.272;2023-02-23T02:38:48;96999.09;;;7.80;67.49
47374;BME280;33123;50.118;10.272;2023-02-23T02:41:24;97053.31;;;8.18;67.53
47374;BME280;33123;50.118;10.272;2023-02-23T02:44:05;97174.19;;;8.94;67.97
47374;BME280;33123;50.118;10.272;2023-02-23T02:46:37;97177.66;;;9.00;67.65
47374;BME280;33123;50.118;10.272;2023-02-23T02:49:09;97273.59;;;9.51;67.97
47374;BME280;33123;50.118;10.272;2023-02-23T02:51:43;97267.53;;;9.51;67.65
47374;BME280;33123;50.118;10.272;2023-02-23T02:54:19;97259.66;;;9.51;67.79
47374;BME280;33123;50.118;10.272;2023-02-23T02:56:51;97173.94;;;8.96;68.10
47374;BME280;33123;50.118;10.272;2023-02-23T02:59:22;97255.19;;;9.51;67.86
47374;BME280;33123;50.118;10.272;2023-02-23T03:02:13;97041.66;;;8.09;68.00
47374;BME280;33123;50.118;10.272;2023-02-23T03:04:58;97251.81;;;9.56;68.12
47374;BME280;33123;50.118;10.272;2023-02-23T03:07:50;97101.53;;;8.56;68.30
47374;BME280;33123;50.118;10.272;2023-02-23T03:10:40;97242.13;;;9.62;68.27
47374;BME280;33123;50.118;10.272;2023-02-23T03:13:35;97245.78;;;9.61;68.23
47374;BME280;33123;50.118;10.272;2023-02-23T03:16:30;97013.78;;;8.03;67.77
47374;BME280;33123;50.118;10.272;2023-02-23T03:19:21;97246.31;;;9.63;67.85
47374;BME280;33123;50.118;10.272;2023-02-23T03:22:14;97234.09;;;9.46;67.84
47374;BME280;33123;50.118;10.272;2023-02-23T03:25:05;97254.22;;;9.63;67.82
47374;BME280;33123;50.118;10.272;2023-02-23T03:27:55;97266.31;;;9.64;67.99
47374;BME280;33123;50.118;10.272;2023-02-23T03:30:47;97192.22;;;9.13;67.49
47374;BME280;33123;50.118;10.272;2023-02-23T03:33:40;97129.59;;;8.78;67.88
47374;BME280;33123;50.118;10.272;2023-02-23T03:36:29;96958.72;;;7.59;67.13
47374;BME280;33123;50.118;10.272;2023-02-23T03:39:21;96905.09;;;7.23;67.52
47374;BME280;33123;50.118;10.272;2023-02-23T03:42:10;97051.22;;;8.20;67.33
47374;BME280;33123;50.118;10.272;2023-02-23T03:45:00;97269.06;;;9.74;67.78
47374;BME280;33123;50.118;10.272;2023-02-23T03:47:50;96998.72;;;7.93;67.71
47374;BME280;33123;50.118;10.272;2023-02-23T03:50:39;97231.97;;;9.48;67.48
47374;BME280;33123;50.118;10.272;2023-02-23T03:53:27;97263.28;;;9.77;67.71
47374;BME280;33123;50.118;10.272;2023-02-23T03:56:17;97270.94;;;9.78;67.70
47374;BME280;33123;50.118;10.272;2023-02-23T03:59:05;97097.66;;;8.64;67.74
47374;BME280;33123;50.118;10.272;2023-02-23T04:01:53;97268.03;;;9.80;67.82
47374;BME280;33123;50.118;10.272;2023-02-23T04:04:39;97265.16;;;9.82;68.01
47374;BME280;33123;50.118;10.272;2023-02-23T04:07:24;97183.38;;;9.24;68.31
47374;BME280;33123;50.118;10.272;2023-02-23T04:10:10;97058.13;;;8.49;68.44
47374;BME280;33123;50.118;10.272;2023-02-23T04:12:59;97267.03;;;9.86;68.65
47374;BME280;33123;50.118;10.272;2023-02-23T04:15:51;97168.06;;;9.16;68.58
47374;BME280;33123;50.118;10.272;2023-02-23T04:18:22;97267.81;;;9.87;68.65
47374;BME280;33123;50.118;10.272;2023-02-23T04:20:50;97270.47;;;9.87;68.85
47374;BME280;33123;50.118;10.272;2023-02-23T04:23:17;97282.56;;;9.88;68.73
47374;BME280;33123;50.118;10.272;2023-02-23T04:25:44;96952.34;;;7.77;69.05
47374;BME280;33123;50.118;10.272;2023-02-23T04:28:12;97271.56;;;9.91;68.98
47374;BME280;33123;50.118;10.272;2023-02-23T04:30:38;96954.94;;;7.72;68.71
47374;BME280;33123;50.118;10.272;2023-02-23T04:33:05;97272.88;;;9.93;68.84
47374;BME280;33123;50.118;10.272;2023-02-23T04:35:34;97279.75;;;9.94;68.89
47374;BME280;33123;50.118;10.272;2023-02-23T04:38:00;97199.88;;;9.46;68.69
47374;BME280;33123;50.118;10.272;2023-02-23T04:40:28;97275.28;;;9.95;68.74
47374;BME280;33123;50.118;10.272;2023-02-23T04:42:54;97281.34;;;9.95;68.97
47374;BME280;33123;50.118;10.272;2023-02-23T04:45:22;97244.28;;;9.70;68.96
47374;BME280;33123;50.118;10.272;2023-02-23T04:47:49;97100.31;;;8.64;69.38
47374;BME280;33123;50.118;10.272;2023-02-23T04:50:16;96978.97;;;7.86;69.10
47374;BME280;33123;50.118;10.272;2023-02-23T04:52:44;97286.59;;;9.95;69.06
47374;BME280;33123;50.118;10.272;2023-02-23T04:55:15;97295.03;;;9.97;69.01
47374;BME280;33123;50.118;10.272;2023-02-23T04:57:43;97172.25;;;9.12;68.92
47374;BME280;33123;50.118;10.272;2023-02-23T05:00:10;97244.19;;;9.60;69.11
47374;BME280;33123;50.118;10.272;2023-02-23T05:02:38;97293.97;;;9.98;69.11
47374;BME280;33123;50.118;10.272;2023-02-23T05:05:05;97289.28;;;10.00;69.20
47374;BME280;33123;50.118;10.272;2023-02-23T05:07:32;97066.09;;;8.59;69.11
47374;BME280;33123;50.118;10.272;2023-02-23T05:10:00;97282.97;;;10.01;69.05
47374;BME280;33123;50.118;10.272;2023-02-23T05:12:27;97293.78;;;10.05;69.30
47374;BME280;33123;50.118;10.272;2023-02-23T05:14:53;96974.47;;;8.08;69.28
47374;BME280;33123;50.118;10.272;2023-02-23T05:17:20;97065.25;;;8.53;69.60
47374;BME280;33123;50.118;10.272;2023-02-23T05:19:47;97290.91;;;10.07;69.95
47374;BME280;33123;50.118;10.272;2023-02-23T05:22:14;97213.19;;;9.62;70.10
47374;BME280;33123;50.118;10.272;2023-02-23T05:24:40;97291.16;;;10.10;70.09
47374;BME280;33123;50.118;10.272;2023-02-23T05:27:09;97249.66;;;9.85;69.96
47374;BME280;33123;50.118;10.272;2023-02-23T05:29:38;97284.09;;;10.11;70.04
47374;BME280;33123;50.118;10.272;2023-02-23T05:32:05;97076.00;;;8.52;69.78
47374;BME280;33123;50.118;10.272;2023-02-23T05:34:31;97283.53;;;10.09;70.12
47374;BME280;33123;50.118;10.272;2023-02-23T05:36:58;97285.38;;;10.08;69.95
47374;BME280;33123;50.118;10.272;2023-02-23T05:39:25;97129.50;;;8.94;70.13
47374;BME280;33123;50.118;10.272;2023-02-23T05:41:51;97286.69;;;10.05;70.44
47374;BME280;33123;50.118;10.272;2023-02-23T05:44:19;97280.38;;;10.07;70.50
47374;BME280;33123;50.118;10.272;2023-02-23T05:46:46;97286.69;;;10.05;70.46
47374;BME280;33123;50.118;10.272;2023-02-23T05:49:12;97286.91;;;10.04;70.41
47374;BME280;33123;50.118;10.272;2023-02-23T05:51:39;97286.91;;;10.04;70.51
47374;BME280;33123;50.118;10.272;2023-02-23T05:54:06;97285.59;;;10.01;70.69
47374;BME280;33123;50.118;10.272;2023-02-23T05:56:33;97290.84;;;10.01;71.12
47374;BME280;33123;50.118;10.272;2023-02-23T05:59:00;96982.50;;;7.97;71.08
47374;BME280;33123;50.118;10.272;2023-02-23T06:01:30;97155.38;;;9.08;71.09
47374;BME280;33123;50.118;10.272;2023-02-23T06:03:57;97075.72;;;8.48;71.13
47374;BME280;33123;50.118;10.272;2023-02-23T06:06:23;97079.81;;;8.66;71.38
47374;BME280;33123;50.118;10.272;2023-02-23T06:08:50;96970.19;;;7.75;71.24
47374;BME280;33123;50.118;10.272;2023-02-23T06:11:17;97090.63;;;8.69;71.24
47374;BME280;33123;50.118;10.272;2023-02-23T06:13:44;97258.00;;;9.77;71.46
47374;BME280;33123;50.118;10.272;2023-02-23T06:16:11;97304.59;;;10.09;71.49
47374;BME280;33123;50.118;10.272;2023-02-23T06:18:39;97133.19;;;8.98;71.50
47374;BME280;33123;50.118;10.272;2023-02-23T06:21:05;97300.69;;;10.11;71.58
47374;BME280;33123;50.118;10.272;2023-02-23T06:23:32;97264.41;;;9.86;71.44
47374;BME280;33123;50.118;10.272;2023-02-23T06:25:59;97294.81;;;10.04;71.57
47374;BME280;33123;50.118;10.272;2023-02-23T06:28:26;97267.28;;;9.85;71.64
47374;BME280;33123;50.118;10.272;2023-02-23T06:30:53;97132.97;;;9.00;71.65
47374;BME280;33123;50.118;10.272;2023-02-23T06:33:21;97233.69;;;9.65;71.48
47374;BME280;33123;50.118;10.272;2023-02-23T06:35:49;97226.28;;;9.57;71.77
47374;BME280;33123;50.118;10.272;2023-02-23T06:38:16;97285.25;;;9.93;72.11
47374;BME280;33123;50.118;10.272;2023-02-23T06:40:43;97081.47;;;8.72;71.75
47374;BME280;33123;50.118;10.272;2023-02-23T06:43:10;97316.28;;;10.23;72.13
47374;BME280;33123;50.118;10.272;2023-02-23T06:45:36;97133.81;;;9.06;71.87
47374;BME280;33123;50.118;10.272;2023-02-23T06:48:04;97313.72;;;10.28;72.32
47374;BME280;33123;50.118;10.272;2023-02-23T06:50:30;97125.13;;;9.05;72.20
47374;BME280;33123;50.118;10.272;2023-02-23T06:52:58;97322.19;;;10.35;71.92
47374;BME280;33123;50.118;10.272;2023-02-23T06:55:25;97304.19;;;10.22;72.04
47374;BME280;33123;50.118;10.272;2023-02-23T06:57:52;97330.13;;;10.40;71.96
47374;BME280;33123;50.118;10.272;2023-02-23T07:00:19;97333.31;;;10.42;71.95
47374;BME280;33123;50.118;10.272;2023-02-23T07:02:46;97078.75;;;8.62;71.82
47374;BME280;33123;50.118;10.272;2023-02-23T07:05:12;97335.97;;;10.47;72.16
47374;BME280;33123;50.118;10.272;2023-02-23T07:07:39;97204.66;;;9.49;71.92
47374;BME280;33123;50.118;10.272;2023-02-23T07:10:08;97331.78;;;10.51;72.14
47374;BME280;33123;50.118;10.272;2023-02-23T07:12:35;97332.88;;;10.55;72.43
47374;BME280;33123;50.118;10.272;2023-02-23T07:15:02;97335.25;;;10.57;72.44
47374;BME280;33123;50.118;10.272;2023-02-23T07:17:29;96975.72;;;8.28;71.92
47374;BME280;33123;50.118;10.272;2023-02-23T07:19:55;97311.72;;;10.45;71.93
47374;BME280;33123;50.118;10.272;2023-02-23T07:22:22;97342.44;;;10.67;72.28
47374;BME280;33123;50.118;10.272;2023-02-23T07:24:53;97162.59;;;9.55;71.96
47374;BME280;33123;50.118;10.272;2023-02-23T07:27:21;97343.25;;;10.72;72.30
47374;BME280;33123;50.118;10.272;2023-02-23T07:29:48;97315.97;;;10.51;72.13
47374;BME280;33123;50.118;10.272;2023-02-23T07:32:14;97195.38;;;9.74;72.21
47374;BME280;33123;50.118;10.272;2023-02-23T07:34:41;97340.41;;;10.84;72.40
47374;BME280;33123;50.118;10.272;2023-02-23T07:37:08;97318.19;;;10.70;72.37
47374;BME280;33123;50.118;10.272;2023-02-23T07:39:35;97326.91;;;10.75;72.50
47374;BME280;33123;50.118;10.272;2023-02-23T07:42:02;97345.47;;;10.96;72.29
47374;BME280;33123;50.118;10.272;2023-02-23T07:44:30;97010.28;;;8.73;71.77
47374;BME280;33123;50.118;10.272;2023-02-23T07:46:57;97169.06;;;9.74;72.29
47374;BME280;33123;50.118;10.272;2023-02-23T07:49:24;97352.13;;;11.08;72.15
47374;BME280;33123;50.118;10.272;2023-02-23T07:51:50;97023.78;;;8.87;72.15
47374;BME280;33123;50.118;10.272;2023-02-23T07:54:17;97310.88;;;10.87;71.75
47374;BME280;33123;50.118;10.272;2023-02-23T07:56:44;97360.09;;;11.19;71.67
47374;BME280;33123;50.118;10.272;2023-02-23T07:59:10;97357.44;;;11.19;70.95
47374;BME280;33123;50.118;10.272;2023-02-23T08:01:39;97360.34;;;11.17;70.73
47374;BME280;33123;50.118;10.272;2023-02-23T08:04:06;97360.09;;;11.19;70.93
47374;BME280;33123;50.118;10.272;2023-02-23T08:06:33;97173.66;;;9.99;71.08
47374;BME280;33123;50.118;10.272;2023-02-23T08:08:59;97361.66;;;11.20;71.14
47374;BME280;33123;50.118;10.272;2023-02-23T08:11:26;97211.94;;;10.12;70.86
47374;BME280;33123;50.118;10.272;2023-02-23T08:13:54;97364.84;;;11.22;71.23
47374;BME280;33123;50.118;10.272;2023-02-23T08:16:24;97363.00;;;11.22;71.66
47374;BME280;33123;50.118;10.272;2023-02-23T08:18:52;97182.59;;;9.93;71.63
47374;BME280;33123;50.118;10.272;2023-02-23T08:21:19;97171.03;;;9.99;71.36
47374;BME280;33123;50.118;10.272;2023-02-23T08:23:47;97369.63;;;11.30;71.82
47374;BME280;33123;50.118;10.272;2023-02-23T08:26:13;97090.50;;;9.50;71.85
47374;BME280;33123;50.118;10.272;2023-02-23T08:28:40;97326.00;;;11.07;71.81
47374;BME280;33123;50.118;10.272;2023-02-23T08:31:10;97372.03;;;11.42;71.77
47374;BME280;33123;50.118;10.272;2023-02-23T08:33:37;97344.28;;;11.24;71.63
47374;BME280;33123;50.118;10.272;2023-02-23T08:36:08;97376.56;;;11.51;71.93
47374;BME280;33123;50.118;10.272;2023-02-23T08:38:35;97354.91;;;11.44;71.52
47374;BME280;33123;50.118;10.272;2023-02-23T08:41:03;97366.56;;;11.58;71.77
47374;BME280;33123;50.118;10.272;2023-02-23T08:43:30;97234.38;;;10.67;71.58
47374;BME280;33123;50.118;10.272;2023-02-23T08:45:57;97303.63;;;11.15;71.46
47374;BME280;33123;50.118;10.272;2023-02-23T08:48:24;97376.31;;;11.58;71.19
47374;BME280;33123;50.118;10.272;2023-02-23T08:50:55;97377.09;;;11.58;71.86
47374;BME280;33123;50.118;10.272;2023-02-23T08:53:23;97370.75;;;11.59;71.68
47374;BME280;33123;50.118;10.272;2023-02-23T08:55:55;97186.28;;;10.34;71.83
47374;BME280;33123;50.118;10.272;2023-02-23T08:58:22;97335.09;;;11.36;71.88
47374;BME280;33123;50.118;10.272;2023-02-23T09:00:48;97276.81;;;10.70;71.68
47374;BME280;33123;50.118;10.272;2023-02-23T09:03:15;97375.03;;;11.60;72.16
47374;BME280;33123;50.118;10.272;2023-02-23T09:05:42;97372.09;;;11.62;72.21
47374;BME280;33123;50.118;10.272;2023-02-23T09:08:09;97381.63;;;11.73;73.11
47374;BME280;33123;50.118;10.272;2023-02-23T09:10:38;97297.59;;;11.29;73.86
47374;BME280;33123;50.118;10.272;2023-02-23T09:15:40;97377.75;;;11.91;71.76
47374;BME280;33123;50.118;10.272;2023-02-23T09:18:09;97320.59;;;11.54;72.26
47374;BME280;33123;50.118;10.272;2023-02-23T09:20:40;97383.28;;;11.89;71.70
47374;BME280;33123;50.118;10.272;2023-02-23T09:23:07;97364.00;;;11.89;72.36
47374;BME280;33123;50.118;10.272;2023-02-23T09:25:39;97374.03;;;11.87;72.62
47374;BME280;33123;50.118;10.272;2023-02-23T09:28:10;97328.28;;;11.56;73.01
47374;BME280;33123;50.118;10.272;2023-02-23T09:30:37;97381.47;;;12.00;73.24
47374;BME280;33123;50.118;10.272;2023-02-23T09:33:04;97377.50;;;12.03;72.84
47374;BME280;33123;50.118;10.272;2023-02-23T09:35:32;97381.47;;;12.05;72.20
47374;BME280;33123;50.118;10.272;2023-02-23T09:38:01;97376.44;;;12.09;72.91
47374;BME280;33123;50.118;10.272;2023-02-23T09:40:33;97351.06;;;11.93;73.17
47374;BME280;33123;50.118;10.272;2023-02-23T09:43:08;97385.69;;;12.11;72.57
47374;BME280;33123;50.118;10.272;2023-02-23T09:45:38;97385.16;;;12.09;72.82
47374;BME280;33123;50.118;10.272;2023-02-23T09:55:02;97397.84;;;12.18;73.24
47374;BME280;33123;50.118;10.272;2023-02-23T09:57:35;97390.44;;;12.14;72.74
47374;BME280;33123;50.118;10.272;2023-02-23T10:00:10;97400.50;;;12.18;72.30
47374;BME280;33123;50.118;10.272;2023-02-23T10:02:50;97398.63;;;12.13;72.32
47374;BME280;33123;50.118;10.272;2023-02-23T10:05:22;97403.63;;;12.09;72.74
47374;BME280;33123;50.118;10.272;2023-02-23T10:07:54;97398.88;;;12.01;72.71
47374;BME280;33123;50.118;10.272;2023-02-23T10:10:26;97407.34;;;12.03;73.09
47374;BME280;33123;50.118;10.272;2023-02-23T10:13:01;97413.69;;;12.02;73.24
47374;BME280;33123;50.118;10.272;2023-02-23T10:15:35;97406.78;;;11.91;73.21
47374;BME280;33123;50.118;10.272;2023-02-23T10:18:14;97407.31;;;11.93;73.29
47374;BME280;33123;50.118;10.272;2023-02-23T10:20:46;97415.25;;;11.98;73.62
47374;BME280;33123;50.118;10.272;2023-02-23T10:23:20;97414.19;;;11.94;73.57
47374;BME280;33123;50.118;10.272;2023-02-23T10:25:51;97409.16;;;11.98;73.89
47374;BME280;33123;50.118;10.272;2023-02-23T10:28:20;97407.59;;;11.97;73.75
47374;BME280;33123;50.118;10.272;2023-02-23T10:30:49;97409.44;;;11.96;73.79
47374;BME280;33123;50.118;10.272;2023-02-23T10:33:20;97405.22;;;12.00;74.09
47374;BME280;33123;50.118;10.272;2023-02-23T10:35:49;97382.22;;;11.85;74.06
47374;BME280;33123;50.118;10.272;2023-02-23T10:38:18;97411.56;;;12.04;73.18
47374;BME280;33123;50.118;10.272;2023-02-23T10:40:48;97408.13;;;12.04;73.58
47374;BME280;33123;50.118;10.272;2023-02-23T10:43:16;97400.47;;;12.07;73.30
47374;BME280;33123;50.118;10.272;2023-02-23T10:45:44;97402.59;;;12.05;73.92
47374;BME280;33123;50.118;10.272;2023-02-23T10:48:17;97411.31;;;12.11;74.05
47374;BME280;33123;50.118;10.272;2023-02-23T10:50:45;97368.50;;;11.88;73.83
47374;BME280;33123;50.118;10.272;2023-02-23T10:53:17;97406.06;;;12.16;73.75
47374;BME280;33123;50.118;10.272;2023-02-23T10:55:45;97400.50;;;12.18;73.78
47374;BME280;33123;50.118;10.272;2023-02-23T10:58:14;97405.50;;;12.24;73.91
47374;BME280;33123;50.118;10.272;2023-02-23T11:00:53;97411.59;;;12.25;73.48
47374;BME280;33123;50.118;10.272;2023-02-23T11:03:28;97407.88;;;12.26;73.67
47374;BME280;33123;50.118;10.272;2023-02-23T11:05:55;97413.72;;;12.33;74.39
47374;BME280;33123;50.118;10.272;2023-02-23T11:08:30;97403.13;;;12.38;73.78
47374;BME280;33123;50.118;10.272;2023-02-23T11:11:03;97398.91;;;12.47;74.44
47374;BME280;33123;50.118;10.272;2023-02-23T11:13:36;97400.50;;;12.48;73.65
47374;BME280;33123;50.118;10.272;2023-02-23T11:16:05;97401.56;;;12.52;73.23
47374;BME280;33123;50.118;10.272;2023-02-23T11:18:36;97399.41;;;12.54;72.93
47374;BME280;33123;50.118;10.272;2023-02-23T11:21:08;97389.13;;;12.48;73.17
47374;BME280;33123;50.118;10.272;2023-02-23T11:23:36;97389.41;;;12.56;72.85
47374;BME280;33123;50.118;10.272;2023-02-23T11:26:19;97396.53;;;12.56;72.89
47374;BME280;33123;50.118;10.272;2023-02-23T11:28:50;97386.22;;;12.54;72.93
47374;BME280;33123;50.118;10.272;2023-02-23T11:31:19;97385.69;;;12.52;72.96
47374;BME280;33123;50.118;10.272;2023-02-23T11:33:48;97378.28;;;12.49;73.31
47374;BME280;33123;50.118;10.272;2023-02-23T11:36:27;97384.09;;;12.56;73.48
47374;BME280;33123;50.118;10.272;2023-02-23T11:39:06;97385.69;;;12.52;73.21
47374;BME280;33123;50.118;10.272;2023-02-23T11:41:34;97303.00;;;11.91;73.23
47374;BME280;33123;50.118;10.272;2023-02-23T11:44:02;97379.34;;;12.48;73.71
47374;BME280;33123;50.118;10.272;2023-02-23T11:46:30;97375.13;;;12.37;73.98
47374;BME280;33123;50.118;10.272;2023-02-23T11:49:02;97379.88;;;12.45;74.38
47374;BME280;33123;50.118;10.272;2023-02-23T11:51:32;97375.38;;;12.56;74.12
47374;BME280;33123;50.118;10.272;2023-02-23T11:54:01;97375.91;;;12.63;74.23
47374;BME280;33123;50.118;10.272;2023-02-23T11:56:31;97365.31;;;12.63;74.11
47374;BME280;33123;50.118;10.272;2023-02-23T11:59:00;97375.63;;;12.75;73.79
47374;BME280;33123;50.118;10.272;2023-02-23T12:01:37;97381.97;;;12.79;73.29
47374;BME280;33123;50.118;10.272;2023-02-23T12:04:22;97376.66;;;12.79;72.84
47374;BME280;33123;50.118;10.272;2023-02-23T12:06:51;97375.09;;;12.73;72.94
47374;BME280;33123;50.118;10.272;2023-02-23T12:09:22;97364.53;;;12.73;72.53
47374;BME280;33123;50.118;10.272;2023-02-23T12:11:52;97371.38;;;12.74;73.36
47374;BME280;33123;50.118;10.272;2023-02-23T12:14:28;97371.41;;;12.68;73.02
47374;BME280;33123;50.118;10.272;2023-02-23T12:17:00;97367.97;;;12.68;73.69
47374;BME280;33123;50.118;10.272;2023-02-23T12:19:32;97365.84;;;12.70;73.51
47374;BME280;33123;50.118;10.272;2023-02-23T12:22:05;97366.09;;;12.74;73.82
47374;BME280;33123;50.118;10.272;2023-02-23T12:24:43;97364.75;;;12.76;73.82
47374;BME280;33123;50.118;10.272;2023-02-23T12:27:14;97363.47;;;12.74;73.23
47374;BME280;33123;50.118;10.272;2023-02-23T12:29:57;97358.97;;;12.74;73.47
47374;BME280;33123;50.118;10.272;2023-02-23T12:32:37;97362.41;;;12.75;73.30
47374;BME280;33123;50.118;10.272;2023-02-23T12:35:13;97360.25;;;12.77;73.59
47374;BME280;33123;50.118;10.272;2023-02-23T12:37:46;97355.53;;;12.74;73.83
47374;BME280;33123;50.118;10.272;2023-02-23T12:40:15;97355.53;;;12.74;73.83
47374;BME280;33123;50.118;10.272;2023-02-23T12:42:51;97351.28;;;12.78;73.33
47374;BME280;33123;50.118;10.272;2023-02-23T12:45:28;97344.94;;;12.84;73.23
47374;BME280;33123;50.118;10.272;2023-02-23T12:48:05;97351.00;;;12.84;73.62
47374;BME280;33123;50.118;10.272;2023-02-23T12:50:38;97349.13;;;12.90;73.59
47374;BME280;33123;50.118;10.272;2023-02-23T12:53:17;97348.56;;;12.98;73.40
47374;BME280;33123;50.118;10.272;2023-02-23T12:55:53;97307.41;;;12.72;73.37
47374;BME280;33123;50.118;10.272;2023-02-23T12:58:31;97351.75;;;13.05;72.77
47374;BME280;33123;50.118;10.272;2023-02-23T13:01:02;97331.63;;;12.99;72.81
47374;BME280;33123;50.118;10.272;2023-02-23T13:04:00;97356.75;;;13.22;73.18
47374;BME280;33123;50.118;10.272;2023-02-23T13:06:37;97345.88;;;13.24;72.34
47374;BME280;33123;50.118;10.272;2023-02-23T13:09:17;97335.78;;;13.20;72.10
47374;BME280;33123;50.118;10.272;2023-02-23T13:12:09;97339.50;;;13.30;71.69
47374;BME280;33123;50.118;10.272;2023-02-23T13:14:44;97339.22;;;13.31;71.09
47374;BME280;33123;50.118;10.272;2023-02-23T13:17:25;97333.13;;;13.31;71.83
47374;BME280;33123;50.118;10.272;2023-02-23T13:19:57;97339.44;;;13.40;71.57
47374;BME280;33123;50.118;10.272;2023-02-23T13:22:33;97337.31;;;13.42;71.37
47374;BME280;33123;50.118;10.272;2023-02-23T13:25:14;97346.59;;;13.39;71.52
47374;BME280;33123;50.118;10.272;2023-02-23T13:27:48;97326.53;;;13.33;71.39
47374;BME280;33123;50.118;10.272;2023-02-23T13:30:17;97336.53;;;13.41;71.13
47374;BME280;33123;50.118;10.272;2023-02-23T13:32:45;97300.38;;;13.22;71.48
47374;BME280;33123;50.118;10.272;2023-02-23T13:35:13;97334.66;;;13.42;71.55
47374;BME280;33123;50.118;10.272;2023-02-23T13:37:47;97339.44;;;13.45;71.44
47374;BME280;33123;50.118;10.272;2023-02-23T13:40:24;97331.50;;;13.40;71.15
47374;BME280;33123;50.118;10.272;2023-02-23T13:43:00;97330.44;;;13.41;71.05